sensor_id;sensor_type;location;lat;lon;timestamp;pressure;altitude;pressure_sealevel;temperature;humidity
26178;BME280;13924;47.670;10.310;2023-08-08T00:00:38;94120;;;9.8;100.0
26178;BME280;13924;47.670;10.310;2023-08-08T00:15:39;94150;;;9.7;100.0
26178;BME280;13924;47.670;10.310;2023-08-08T00:30:40;94170;;;9.7;100.0
26178;BME280;13924;47.670;10.310;2023-08-08T00:45:42;94150;;;9.6;100.0
26178;BME280;13924;47.670;10.310;2023-08-08T01:00:42;94160;;;9.6;100.0
26178;BME280;13924;47.670;10.310;2023-08-08T01:01:26;94150;;;9.6;100.0
26178;BME280;13924;47.670;10.310;2023-08-08T01:15:43;94010;;;9.8;100.0
26178;BME280;13924;47.670;10.310;2023-08-08T01:30:43;93990;;;9.6;100.0
26178;BME280;13924;47.670;10.310;2023-08-08T01:45:43;94200;;;9.2;100.0
26178;BME280;13924;47.670;10.310;2023-08-08T02:00:43;94220;;;9.1;100.0
26178;BME280;13924;47.670;10.310;2023-08-08T02:15:44;94210;;;9.1;100.0
26178;BME280;13924;47.670;10.310;2023-08-08T02:30:45;94190;;;8.9;100.0
26178;BME280;13924;47.670;10.310;2023-08-08T02:45:46;94210;;;8.8;100.0
26178;BME280;13924;47.670;10.310;2023-08-08T03:00:46;94210;;;8.9;100.0
26178;BME280;13924;47.670;10.310;2023-08-08T03:15:47;94180;;;8.7;100.0
26178;BME280;13924;47.670;10.310;2023-08-08T03:30:47;94220;;;8.5;100.0
26178;BME280;13924;47.670;10.310;2023-08-08T03:45:48;94260;;;8.1;100.0
26178;BME280;13924;47.670;10.310;2023-08-08T04:00:08;94260;;;7.9;100.0
26178;BME280;13924;47.670;10.310;2023-08-08T04:15:07;94290;;;7.7;100.0
26178;BME280;13924;47.670;10.310;2023-08-08T04:30:07;94300;;;7.7;100.0
26178;BME280;13924;47.670;10.310;2023-08-08T04:45:08;94290;;;7.9;100.0
26178;BME280;13924;47.670;10.310;2023-08-08T05:00:09;94270;;;8.0;100.0
26178;BME280;13924;47.670;10.310;2023-08-08T05:15:09;94270;;;8.3;100.0
26178;BME280;13924;47.670;10.310;2023-08-08T05:30:10;94210;;;8.7;100.0
26178;BME280;13924;47.670;10.310;2023-08-08T05:45:10;94070;;;9.2;100.0
26178;BME280;13924;47.670;10.310;2023-08-08T06:00:12;93890;;;9.6;100.0
26178;BME280;13924;47.670;10.310;2023-08-08T06:15:12;93750;;;10.1;100.0
26178;BME280;13924;47.670;10.310;2023-08-08T06:30:13;93690;;;10.5;100.0
26178;BME280;13924;47.670;10.310;2023-08-08T06:45:13;93640;;;11.0;100.0
26178;BME280;13924;47.670;10.310;2023-08-08T07:00:15;93590;;;11.5;100.0
26178;BME280;13924;47.670;10.310;2023-08-08T07:15:15;93570;;;12.1;100.0
26178;BME280;13924;47.670;10.310;2023-08-08T07:30:15;93540;;;13.0;100.0
26178;BME280;13924;47.670;10.310;2023-08-08T07:45:16;93500;;;13.3;100.0
26178;BME280;13924;47.670;10.310;2023-08-08T08:00:17;93510;;;13.8;100.0
26178;BME280;13924;47.670;10.310;2023-08-08T08:15:17;93490;;;14.4;100.0
26178;BME280;13924;47.670;10.310;2023-08-08T08:30:17;93470;;;14.7;100.0
26178;BME280;13924;47.670;10.310;2023-08-08T08:45:20;93460;;;14.9;100.0
26178;BME280;13924;47.670;10.310;2023-08-08T09:00:19;93440;;;15.2;100.0
26178;BME280;13924;47.670;10.310;2023-08-08T09:15:20;93430;;;15.7;100.0
26178;BME280;13924;47.670;10.310;2023-08-08T09:30:21;93430;;;15.8;100.0
26178;BME280;13924;47.670;10.310;2023-08-08T09:45:21;93430;;;16.1;100.0
26178;BME280;13924;47.670;10.310;2023-08-08T10:00:24;93420;;;16.2;100.0
26178;BME280;13924;47.670;10.310;2023-08-08T10:15:26;93420;;;16.5;100.0
26178;BME280;13924;47.670;10.310;2023-08-08T10:30:26;93430;;;16.9;100.0
26178;BME280;13924;47.670;10.310;2023-08-08T10:45:30;93420;;;17.2;99.4
26178;BME280;13924;47.670;10.310;2023-08-08T11:00:32;93420;;;17.4;94.8
26178;BME280;13924;47.670;10.310;2023-08-08T11:15:32;93400;;;17.8;97.0
26178;BME280;13924;47.670;10.310;2023-08-08T11:30:32;93400;;;18.5;91.6
26178;BME280;13924;47.670;10.310;2023-08-08T11:45:31;93390;;;18.5;85.4
26178;BME280;13924;47.670;10.310;2023-08-08T12:00:32;93380;;;18.3;85.9
26178;BME280;13924;47.670;10.310;2023-08-08T12:15:34;93380;;;18.9;90.4
26178;BME280;13924;47.670;10.310;2023-08-08T12:30:33;93360;;;19.3;83.7
26178;BME280;13924;47.670;10.310;2023-08-08T12:45:33;93370;;;18.8;92.2
26178;BME280;13924;47.670;10.310;2023-08-08T13:00:34;93350;;;18.8;80.3
26178;BME280;13924;47.670;10.310;2023-08-08T13:15:35;93350;;;19.2;95.9
26178;BME280;13924;47.670;10.310;2023-08-08T13:30:36;93350;;;18.9;76.4
26178;BME280;13924;47.670;10.310;2023-08-08T13:45:35;93370;;;18.5;91.2
26178;BME280;13924;47.670;10.310;2023-08-08T14:00:36;93340;;;19.2;86.6
26178;BME280;13924;47.670;10.310;2023-08-08T14:15:37;93340;;;18.8;56.2
26178;BME280;13924;47.670;10.310;2023-08-08T14:30:42;93340;;;18.8;56.2
26178;BME280;13924;47.670;10.310;2023-08-08T14:45:51;93330;;;19.2;71.9
26178;BME280;13924;47.670;10.310;2023-08-08T15:00:40;93340;;;19.6;61.8
26178;BME280;13924;47.670;10.310;2023-08-08T15:15:40;93350;;;19.5;74.7
26178;BME280;13924;47.670;10.310;2023-08-08T15:30:40;93360;;;19.2;90.1
26178;BME280;13924;47.670;10.310;2023-08-08T15:45:40;93350;;;19.5;84.2
26178;BME280;13924;47.670;10.310;2023-08-08T16:00:42;93360;;;19.4;88.9
26178;BME280;13924;47.670;10.310;2023-08-08T16:15:42;93350;;;18.7;95.7
26178;BME280;13924;47.670;10.310;2023-08-08T16:30:43;93340;;;19.3;86.5
26178;BME280;13924;47.670;10.310;2023-08-08T16:45:44;93340;;;19.1;83.8
26178;BME280;13924;47.670;10.310;2023-08-08T17:00:44;93350;;;19.0;88.3
26178;BME280;13924;47.670;10.310;2023-08-08T17:15:45;93360;;;19.0;96.7
26178;BME280;13924;47.670;10.310;2023-08-08T17:30:46;93370;;;18.8;100.0
26178;BME280;13924;47.670;10.310;2023-08-08T17:45:56;93370;;;18.8;100.0
26178;BME280;13924;47.670;10.310;2023-08-08T18:00:49;93380;;;17.9;100.0
26178;BME280;13924;47.670;10.310;2023-08-08T18:15:49;93370;;;17.4;100.0
26178;BME280;13924;47.670;10.310;2023-08-08T18:30:48;93390;;;17.1;100.0
26178;BME280;13924;47.670;10.310;2023-08-08T18:45:50;93420;;;16.8;100.0
26178;BME280;13924;47.670;10.310;2023-08-08T19:00:51;93400;;;16.1;100.0
26178;BME280;13924;47.670;10.310;2023-08-08T19:15:50;93420;;;16.2;100.0
26178;BME280;13924;47.670;10.310;2023-08-08T19:30:52;93440;;;15.3;100.0
26178;BME280;13924;47.670;10.310;2023-08-08T19:45:52;93440;;;15.2;100.0
26178;BME280;13924;47.670;10.310;2023-08-08T20:00:52;93430;;;14.8;100.0
26178;BME280;13924;47.670;10.310;2023-08-08T20:15:53;93440;;;14.3;100.0
26178;BME280;13924;47.670;10.310;2023-08-08T20:30:54;93450;;;14.9;100.0
26178;BME280;13924;47.670;10.310;2023-08-08T20:45:55;93450;;;13.9;100.0
26178;BME280;13924;47.670;10.310;2023-08-08T21:00:55;93460;;;14.0;100.0
26178;BME280;13924;47.670;10.310;2023-08-08T21:15:56;93440;;;14.1;100.0
26178;BME280;13924;47.670;10.310;2023-08-08T21:30:56;93450;;;14.4;100.0
26178;BME280;13924;47.670;10.310;2023-08-08T21:46:06;93420;;;14.4;100.0
26178;BME280;13924;47.670;10.310;2023-08-08T22:00:34;93420;;;14.5;100.0
26178;BME280;13924;47.670;10.310;2023-08-08T22:15:34;93420;;;14.1;100.0
26178;BME280;13924;47.670;10.310;2023-08-08T22:30:34;93430;;;13.7;100.0
26178;BME280;13924;47.670;10.310;2023-08-08T22:45:36;93450;;;13.5;100.0
26178;BME280;13924;47.670;10.310;2023-08-08T23:00:35;93430;;;13.4;100.0
26178;BME280;13924;47.670;10.310;2023-08-08T23:15:36;93410;;;13.9;100.0
26178;BME280;13924;47.670;10.310;2023-08-08T23:30:37;93410;;;13.8;100.0
26178;BME280;13924;47.670;10.310;2023-08-08T23:45:40;93440;;;13.1;100.0
